Time;durP1;ratioP1;P1;durP2;ratioP2;P2;SDS_P1;SDS_P2;PMS_P1;PMS_P2;Temp;Humidity;BMP_temperature;BMP_pressure;BME280_temperature;BME280_humidity;BME280_pressure;Samples;Min_cycle;Max_cycle;Signal;HPM_P1;HPM_P2
2021/03/19 00:00:29;;;;;;;0.63;0.20;;;9.50;65.10;;;;;;4965437;28;20035;-79
2021/03/19 00:02:55;;;;;;;0.90;0.38;;;9.50;65.30;;;;;;4956661;28;20039;-79
2021/03/19 00:05:23;;;;;;;3.50;0.52;;;9.50;65.30;;;;;;4960207;28;20491;-79
2021/03/19 00:07:50;;;;;;;0.95;0.43;;;9.50;65.30;;;;;;4959346;28;20027;-79
2021/03/19 00:10:18;;;;;;;7.85;0.30;;;9.50;65.30;;;;;;4964741;28;20038;-80
2021/03/19 00:12:45;;;;;;;6.15;0.80;;;9.50;65.30;;;;;;4968373;28;20047;-80
2021/03/19 00:15:12;;;;;;;0.52;0.25;;;9.40;65.30;;;;;;4950755;28;20393;-80
2021/03/19 00:17:38;;;;;;;0.50;0.10;;;9.50;65.50;;;;;;4945978;29;20047;-79
2021/03/19 00:20:06;;;;;;;0.22;0.13;;;9.40;65.50;;;;;;4940986;29;20043;-80
2021/03/19 00:22:32;;;;;;;0.35;0.10;;;9.40;65.60;;;;;;4940947;28;20460;-80
2021/03/19 00:24:58;;;;;;;1.05;0.52;;;9.40;65.70;;;;;;4951957;28;20031;-80
2021/03/19 00:27:24;;;;;;;2.35;0.98;;;9.40;65.90;;;;;;4964668;28;20498;-80
2021/03/19 00:29:50;;;;;;;0.82;0.38;;;9.40;65.90;;;;;;4935729;28;20038;-81
2021/03/19 00:32:17;;;;;;;2.33;0.60;;;9.30;65.90;;;;;;4930255;29;20039;-80
2021/03/19 00:34:43;;;;;;;0.70;0.32;;;9.30;66.10;;;;;;4958503;28;20039;-80
2021/03/19 00:37:09;;;;;;;1.90;0.63;;;9.30;66.10;;;;;;4953921;28;20026;-80
2021/03/19 00:39:36;;;;;;;1.00;0.47;;;9.30;66.20;;;;;;4952546;28;20054;-80
2021/03/19 00:42:02;;;;;;;1.75;0.20;;;9.30;66.30;;;;;;4951360;28;20054;-80
2021/03/19 00:44:28;;;;;;;0.95;0.40;;;9.30;66.30;;;;;;4960274;28;20031;-80
2021/03/19 00:46:55;;;;;;;0.22;0.22;;;9.30;66.40;;;;;;4957638;28;20031;-80
2021/03/19 00:49:21;;;;;;;0.90;0.52;;;9.30;66.40;;;;;;4943928;28;20015;-80
2021/03/19 00:51:47;;;;;;;0.88;0.50;;;9.20;66.40;;;;;;4971319;28;20034;-80
2021/03/19 00:54:13;;;;;;;0.03;0.00;;;9.20;67.40;;;;;;4950652;28;20038;-80
2021/03/19 00:56:39;;;;;;;6.07;0.30;;;9.20;66.70;;;;;;4945701;29;20035;-82
2021/03/19 00:59:07;;;;;;;0.80;0.32;;;9.20;66.70;;;;;;4961254;28;20044;-80
2021/03/19 01:01:36;;;;;;;0.90;0.32;;;9.20;66.70;;;;;;4954080;28;20035;-80
2021/03/19 01:04:03;;;;;;;0.30;0.15;;;9.20;66.70;;;;;;4969136;28;20039;-80
2021/03/19 01:06:29;;;;;;;1.02;0.32;;;9.30;66.70;;;;;;4965184;28;20057;-80
2021/03/19 01:08:56;;;;;;;1.02;0.55;;;9.30;66.80;;;;;;4949057;28;20035;-81
2021/03/19 01:11:22;;;;;;;2.13;0.30;;;9.20;66.80;;;;;;4945524;29;20038;-79
2021/03/19 01:13:48;;;;;;;15.45;0.45;;;9.30;66.90;;;;;;4943143;28;20050;-79
2021/03/19 01:16:14;;;;;;;0.80;0.30;;;9.30;66.80;;;;;;4963720;28;20038;-80
2021/03/19 01:18:40;;;;;;;1.05;0.55;;;9.30;66.90;;;;;;4966767;28;20041;-80
2021/03/19 01:21:06;;;;;;;0.63;0.20;;;9.30;66.90;;;;;;4955896;28;20042;-80
2021/03/19 01:23:33;;;;;;;2.78;0.40;;;9.30;67.00;;;;;;4943282;28;20391;-80
2021/03/19 01:25:59;;;;;;;0.98;0.55;;;9.30;67.00;;;;;;4959473;28;20027;-80
2021/03/19 01:28:25;;;;;;;1.15;0.35;;;9.30;67.20;;;;;;4936809;29;20038;-80
2021/03/19 01:30:51;;;;;;;2.53;1.13;;;9.30;67.30;;;;;;4969962;28;20035;-80
2021/03/19 01:33:17;;;;;;;7.75;0.55;;;9.30;67.30;;;;;;4931457;29;20544;-80
2021/03/19 01:35:43;;;;;;;1.55;0.45;;;9.20;67.30;;;;;;4917944;28;20043;-80
2021/03/19 01:38:10;;;;;;;1.42;0.82;;;9.20;67.30;;;;;;4944913;29;20039;-80
2021/03/19 01:40:44;;;;;;;1.05;0.50;;;9.30;67.40;;;;;;4941120;28;20027;-79
2021/03/19 01:43:25;;;;;;;1.27;0.47;;;9.30;67.40;;;;;;4968928;28;20030;-80
2021/03/19 01:46:03;;;;;;;0.68;0.20;;;9.30;67.40;;;;;;4973031;28;20038;-80
2021/03/19 01:49:07;;;;;;;0.45;0.20;;;9.40;67.40;;;;;;4975806;28;20031;-80
2021/03/19 01:52:10;;;;;;;3.28;0.45;;;9.40;67.40;;;;;;4975359;28;20037;-80
2021/03/19 01:55:14;;;;;;;0.55;0.10;;;9.40;67.40;;;;;;4955469;28;20050;-80
2021/03/19 01:58:17;;;;;;;6.32;0.63;;;9.40;67.40;;;;;;4972607;28;20031;-82
2021/03/19 02:01:21;;;;;;;3.90;0.43;;;9.40;67.40;;;;;;4974206;28;20038;-80
2021/03/19 02:04:25;;;;;;;0.45;0.28;;;9.40;67.60;;;;;;4974022;28;20027;-79
2021/03/19 02:07:28;;;;;;;1.80;0.82;;;9.30;67.50;;;;;;4972881;28;20047;-81
2021/03/19 02:10:32;;;;;;;1.48;0.55;;;9.30;67.60;;;;;;4957688;28;20034;-80
2021/03/19 02:13:35;;;;;;;1.13;0.38;;;9.30;67.70;;;;;;4940821;28;20046;-80
2021/03/19 02:16:39;;;;;;;0.38;0.05;;;9.30;67.70;;;;;;4971579;28;20035;-81
2021/03/19 02:19:42;;;;;;;1.05;0.32;;;9.30;67.70;;;;;;4956393;28;20422;-80
2021/03/19 02:22:46;;;;;;;0.28;0.17;;;9.30;67.70;;;;;;4955474;28;20051;-80
2021/03/19 02:25:50;;;;;;;0.47;0.30;;;9.40;67.70;;;;;;4954959;28;20042;-80
2021/03/19 02:28:53;;;;;;;0.22;0.13;;;9.40;67.60;;;;;;4969953;28;20036;-83
2021/03/19 02:31:51;;;;;;;2.42;0.15;;;9.40;67.60;;;;;;4968821;28;20035;-80
2021/03/19 02:34:18;;;;;;;0.32;0.17;;;9.40;67.70;;;;;;4951950;29;20047;-80
2021/03/19 02:36:44;;;;;;;0.40;0.25;;;9.40;67.70;;;;;;4922009;28;20050;-80
2021/03/19 02:39:10;;;;;;;1.42;0.70;;;9.40;67.70;;;;;;4958317;28;20033;-79
2021/03/19 02:41:36;;;;;;;0.98;0.40;;;9.40;67.80;;;;;;4932651;29;20040;-80
2021/03/19 02:44:02;;;;;;;5.22;0.63;;;9.40;67.90;;;;;;4962854;28;20026;-80
2021/03/19 02:46:28;;;;;;;1.23;0.55;;;9.40;67.90;;;;;;4955162;28;20031;-80
2021/03/19 02:48:54;;;;;;;1.10;0.47;;;9.40;67.90;;;;;;4954181;28;20031;-80
2021/03/19 02:51:20;;;;;;;1.88;1.02;;;9.40;68.00;;;;;;4953445;28;20018;-80
2021/03/19 02:53:47;;;;;;;2.17;0.60;;;9.40;68.10;;;;;;4963724;28;20035;-80
2021/03/19 02:56:13;;;;;;;1.08;0.38;;;9.50;68.10;;;;;;4961608;28;20030;-80
2021/03/19 02:58:39;;;;;;;1.33;0.32;;;9.40;68.10;;;;;;4968293;28;20484;-80
2021/03/19 03:01:05;;;;;;;5.35;0.85;;;9.50;68.20;;;;;;4936273;28;20050;-80
2021/03/19 03:03:32;;;;;;;2.40;0.55;;;9.40;68.30;;;;;;4927325;28;20638;-81
2021/03/19 03:05:58;;;;;;;0.80;0.40;;;9.50;68.40;;;;;;4944059;28;20038;-80
2021/03/19 03:08:24;;;;;;;0.52;0.30;;;9.40;68.40;;;;;;4954386;28;20023;-80
2021/03/19 03:10:52;;;;;;;0.50;0.40;;;9.40;68.50;;;;;;4935848;28;20035;-80
2021/03/19 03:13:18;;;;;;;2.25;0.45;;;9.50;68.50;;;;;;4931714;28;20034;-80
2021/03/19 03:15:45;;;;;;;1.27;0.30;;;9.40;68.50;;;;;;4939017;28;20062;-80
2021/03/19 03:18:11;;;;;;;2.42;0.77;;;9.40;68.50;;;;;;4967273;28;20031;-80
2021/03/19 03:20:40;;;;;;;0.77;0.32;;;9.50;68.60;;;;;;4932105;28;20046;-80
2021/03/19 03:23:06;;;;;;;2.15;0.50;;;9.40;68.60;;;;;;4943808;29;20490;-80
2021/03/19 03:25:33;;;;;;;4.22;0.93;;;9.40;68.70;;;;;;4928016;28;20038;-80
2021/03/19 03:27:59;;;;;;;1.00;0.47;;;9.50;68.80;;;;;;4908443;28;20034;-80
2021/03/19 03:30:32;;;;;;;3.53;0.50;;;9.40;68.80;;;;;;4935329;28;20388;-80
2021/03/19 03:32:58;;;;;;;2.33;0.50;;;9.40;68.80;;;;;;4938560;28;20039;-81
2021/03/19 03:35:25;;;;;;;1.50;0.43;;;9.40;68.90;;;;;;4930612;28;20039;-80
2021/03/19 03:37:52;;;;;;;0.88;0.28;;;9.40;69.00;;;;;;4967622;28;20092;-80
2021/03/19 03:40:39;;;;;;;12.25;1.08;;;9.40;69.10;;;;;;4947134;29;20388;-81
2021/03/19 03:43:05;;;;;;;0.82;0.35;;;9.40;69.00;;;;;;4937801;28;20051;-79
2021/03/19 03:45:31;;;;;;;0.57;0.20;;;9.50;69.10;;;;;;4966064;28;20034;-80
2021/03/19 03:47:58;;;;;;;0.60;0.25;;;9.50;69.10;;;;;;4956893;28;20034;-79
2021/03/19 03:50:26;;;;;;;1.10;0.47;;;9.50;69.10;;;;;;4946086;29;20576;-79
2021/03/19 03:52:52;;;;;;;2.70;0.50;;;9.50;69.10;;;;;;4941558;28;20514;-79
2021/03/19 03:55:19;;;;;;;1.23;0.52;;;9.50;69.10;;;;;;4957016;28;20035;-79
2021/03/19 03:57:45;;;;;;;0.45;0.25;;;9.50;69.10;;;;;;4969173;28;20038;-79
2021/03/19 04:00:14;;;;;;;3.47;0.88;;;9.50;69.20;;;;;;4935381;28;20046;-79
2021/03/19 04:02:40;;;;;;;1.75;0.45;;;9.50;69.20;;;;;;4915669;29;20050;-80
2021/03/19 04:05:08;;;;;;;3.35;1.02;;;9.50;69.30;;;;;;4938513;28;20031;-79
2021/03/19 04:07:34;;;;;;;1.85;0.15;;;9.50;69.40;;;;;;4936083;28;20034;-79
2021/03/19 04:10:00;;;;;;;1.45;0.65;;;9.50;69.50;;;;;;4968585;28;20041;-80
2021/03/19 04:12:26;;;;;;;1.60;0.65;;;9.50;69.50;;;;;;4965581;28;20027;-80
2021/03/19 04:14:52;;;;;;;1.25;0.45;;;9.50;69.60;;;;;;4959613;28;20042;-79
2021/03/19 04:17:31;;;;;;;2.40;0.70;;;9.50;69.60;;;;;;4955324;28;20023;-81
2021/03/19 04:19:58;;;;;;;2.90;0.80;;;9.40;69.70;;;;;;4935901;28;20027;-80
2021/03/19 04:22:24;;;;;;;1.13;0.82;;;9.50;69.70;;;;;;4966656;28;20050;-80
2021/03/19 04:24:51;;;;;;;0.30;0.13;;;9.50;69.70;;;;;;4970480;28;20034;-81
2021/03/19 04:27:21;;;;;;;0.93;0.63;;;9.50;69.70;;;;;;4956527;28;20031;-80
2021/03/19 04:29:47;;;;;;;0.75;0.43;;;9.50;69.90;;;;;;4935860;28;20034;-80
2021/03/19 04:32:14;;;;;;;1.17;0.70;;;9.50;70.00;;;;;;4944891;28;20388;-80
2021/03/19 04:34:40;;;;;;;1.10;0.35;;;9.40;70.00;;;;;;4942410;28;20042;-79
2021/03/19 04:37:07;;;;;;;1.55;0.30;;;9.40;70.30;;;;;;4966656;28;20030;-80
2021/03/19 04:39:33;;;;;;;2.15;0.57;;;9.40;70.50;;;;;;4949550;28;20043;-80
2021/03/19 04:42:01;;;;;;;0.55;0.20;;;9.40;70.50;;;;;;4956277;28;20015;-79
2021/03/19 04:44:30;;;;;;;4.88;1.70;;;9.40;70.70;;;;;;4963084;28;20028;-80
2021/03/19 04:46:56;;;;;;;0.50;0.32;;;9.40;71.10;;;;;;4959158;28;20039;-79
2021/03/19 04:49:23;;;;;;;2.58;0.80;;;9.30;71.10;;;;;;4966722;28;20058;-80
2021/03/19 04:51:49;;;;;;;2.15;1.20;;;9.40;71.10;;;;;;4953799;28;20031;-80
2021/03/19 04:54:15;;;;;;;5.78;1.15;;;9.40;71.10;;;;;;4969290;28;20045;-80
2021/03/19 04:56:42;;;;;;;0.65;0.13;;;9.40;71.10;;;;;;4943729;28;20037;-80
2021/03/19 04:59:08;;;;;;;0.60;0.17;;;9.40;71.00;;;;;;4927757;28;20047;-79
2021/03/19 05:01:55;;;;;;;1.17;0.60;;;9.40;70.90;;;;;;4964937;28;20061;-80
2021/03/19 05:04:21;;;;;;;1.92;0.70;;;9.40;71.10;;;;;;4945531;29;20023;-80
2021/03/19 05:06:48;;;;;;;1.90;0.38;;;9.40;71.40;;;;;;4952480;28;20367;-80
2021/03/19 05:09:15;;;;;;;3.80;0.77;;;9.40;71.60;;;;;;4931478;29;20054;-80
2021/03/19 05:11:41;;;;;;;1.75;0.70;;;9.40;71.70;;;;;;4965057;28;20046;-80
2021/03/19 05:14:07;;;;;;;1.90;1.00;;;9.40;71.90;;;;;;4961309;28;20043;-81
2021/03/19 05:16:33;;;;;;;4.15;0.20;;;9.40;72.30;;;;;;4951054;28;20040;-80
2021/03/19 05:18:59;;;;;;;0.35;0.17;;;9.40;72.40;;;;;;4956320;28;20042;-79
2021/03/19 05:21:25;;;;;;;2.22;0.38;;;9.40;72.60;;;;;;4936584;28;20039;-80
2021/03/19 05:23:51;;;;;;;1.45;0.35;;;9.40;73.10;;;;;;4959255;28;20034;-79
2021/03/19 05:26:17;;;;;;;10.82;1.08;;;9.30;73.10;;;;;;4969206;28;20058;-80
2021/03/19 05:28:44;;;;;;;14.50;0.55;;;9.30;73.20;;;;;;4961340;28;20054;-79
2021/03/19 05:31:10;;;;;;;2.47;0.73;;;9.30;73.30;;;;;;4972247;28;20031;-79
2021/03/19 05:33:46;;;;;;;0.88;0.57;;;9.40;73.50;;;;;;4937723;28;20053;-79
2021/03/19 05:36:13;;;;;;;1.80;0.32;;;9.30;73.60;;;;;;4955349;28;20046;-81
2021/03/19 05:38:39;;;;;;;0.63;0.20;;;9.30;74.00;;;;;;4960848;28;20054;-80
2021/03/19 05:41:06;;;;;;;0.25;0.00;;;9.30;74.20;;;;;;4963252;28;20034;-79
2021/03/19 05:43:34;;;;;;;0.17;0.05;;;9.30;74.60;;;;;;4968580;28;20026;-80
2021/03/19 05:46:00;;;;;;;3.95;0.73;;;9.20;75.50;;;;;;4942942;28;20031;-79
2021/03/19 05:48:32;;;;;;;0.13;0.10;;;9.20;76.30;;;;;;4972845;28;20162;-80
2021/03/19 05:50:58;;;;;;;0.85;0.00;;;9.20;76.30;;;;;;4947035;28;20026;-80
2021/03/19 05:53:39;;;;;;;1.30;0.65;;;9.10;76.30;;;;;;4949699;29;20485;-79
2021/03/19 05:56:13;;;;;;;0.00;0.00;;;9.10;76.50;;;;;;4962825;28;20038;-79
2021/03/19 05:58:39;;;;;;;0.70;0.32;;;9.10;76.80;;;;;;4941749;28;20188;-79
2021/03/19 06:01:05;;;;;;;0.00;0.00;;;9.10;76.90;;;;;;4971086;28;20047;-79
2021/03/19 06:03:31;;;;;;;3.30;1.05;;;9.10;77.00;;;;;;4936020;28;20062;-80
2021/03/19 06:06:03;;;;;;;0.47;0.30;;;9.00;76.90;;;;;;4942109;28;20054;-79
2021/03/19 06:08:48;;;;;;;0.22;0.22;;;9.10;77.00;;;;;;4965288;28;20039;-80
2021/03/19 06:11:25;;;;;;;0.98;0.45;;;9.00;76.90;;;;;;4962428;28;20037;-79
2021/03/19 06:14:03;;;;;;;0.20;0.05;;;9.00;77.30;;;;;;4922502;28;20042;-79
2021/03/19 06:16:42;;;;;;;0.73;0.10;;;9.00;77.40;;;;;;4938776;28;20035;-79
2021/03/19 06:19:30;;;;;;;0.00;0.00;;;9.00;77.60;;;;;;4968626;28;20037;-79
2021/03/19 06:22:15;;;;;;;0.63;0.40;;;9.00;77.60;;;;;;4939223;28;20039;-80
2021/03/19 06:24:41;;;;;;;0.13;0.13;;;8.90;77.60;;;;;;4972918;28;20498;-79
2021/03/19 06:27:47;;;;;;;0.45;0.30;;;8.90;77.70;;;;;;4952442;28;20038;-79
2021/03/19 06:30:37;;;;;;;1.02;0.47;;;8.90;77.80;;;;;;4955806;28;20043;-80
2021/03/19 06:33:12;;;;;;;0.00;0.00;;;8.90;77.70;;;;;;4943648;29;20046;-79
2021/03/19 06:35:42;;;;;;;2.88;0.15;;;8.90;77.80;;;;;;4966957;28;20038;-81
2021/03/19 06:38:37;;;;;;;0.00;0.00;;;8.80;77.90;;;;;;4933926;29;20388;-80
2021/03/19 06:41:16;;;;;;;0.60;0.00;;;8.80;78.00;;;;;;4950365;28;20755;-80
2021/03/19 06:43:42;;;;;;;0.20;0.10;;;8.80;78.20;;;;;;4967340;28;20039;-79
2021/03/19 06:46:08;;;;;;;0.20;0.17;;;8.80;78.40;;;;;;4970065;28;20065;-79
2021/03/19 06:48:41;;;;;;;0.00;0.00;;;8.80;79.30;;;;;;4971578;28;20031;-79
2021/03/19 06:51:44;;;;;;;0.30;0.00;;;8.80;78.50;;;;;;4943207;29;20031;-79
2021/03/19 06:54:23;;;;;;;0.28;0.20;;;8.80;78.40;;;;;;4973932;28;20039;-79
2021/03/19 06:57:08;;;;;;;0.00;0.00;;;8.80;78.30;;;;;;4946963;29;20027;-79
2021/03/19 06:59:48;;;;;;;0.10;0.10;;;8.80;78.20;;;;;;4942695;29;20035;-79
2021/03/19 07:02:20;;;;;;;0.30;0.30;;;8.90;78.10;;;;;;4931589;28;20042;-79
2021/03/19 07:04:53;;;;;;;0.13;0.10;;;8.90;78.20;;;;;;4969360;28;20043;-79
2021/03/19 07:07:36;;;;;;;0.00;0.00;;;8.90;78.30;;;;;;4941193;28;20058;-81
2021/03/19 07:10:26;;;;;;;0.25;0.13;;;8.90;78.30;;;;;;4954019;28;20531;-79
2021/03/19 07:13:15;;;;;;;0.00;0.00;;;9.00;78.10;;;;;;4955824;28;20050;-82
2021/03/19 07:15:54;;;;;;;0.05;0.05;;;9.10;78.00;;;;;;4972991;28;20061;-80
2021/03/19 07:18:30;;;;;;;0.32;0.32;;;9.20;77.70;;;;;;4934541;29;20392;-79
2021/03/19 07:21:55;;;;;;;0.10;0.00;;;9.30;77.70;;;;;;4941409;28;20042;-82
2021/03/19 07:24:29;;;;;;;0.00;0.00;;;9.30;77.80;;;;;;4900244;29;20548;-81
2021/03/19 07:27:21;;;;;;;0.52;0.32;;;9.50;77.70;;;;;;4901023;29;20053;-79
2021/03/19 07:29:59;;;;;;;0.35;0.10;;;9.70;77.30;;;;;;4908914;29;20044;-79
2021/03/19 07:32:30;;;;;;;0.10;0.10;;;9.80;76.80;;;;;;4898577;29;20039;-81
2021/03/19 07:35:18;;;;;;;0.03;0.00;;;9.80;76.60;;;;;;4908024;29;20052;-79
2021/03/19 07:37:55;;;;;;;1.00;0.30;;;9.70;76.60;;;;;;4901029;29;20035;-80
2021/03/19 07:40:30;;;;;;;0.52;0.20;;;9.60;76.70;;;;;;4899404;29;20035;-80
2021/03/19 07:43:30;;;;;;;0.00;0.00;;;9.50;76.90;;;;;;4896850;29;20402;-80
2021/03/19 07:45:56;;;;;;;1.10;0.10;;;9.30;77.10;;;;;;4868339;29;20401;-80
2021/03/19 07:48:42;;;;;;;0.00;0.00;;;9.20;77.20;;;;;;4895119;29;20145;-79
2021/03/19 07:51:11;;;;;;;0.50;0.45;;;9.10;77.30;;;;;;4912932;29;20429;-79
2021/03/19 07:53:54;;;;;;;0.08;0.08;;;9.00;77.40;;;;;;4894128;29;20048;-79
2021/03/19 07:56:45;;;;;;;0.65;0.28;;;9.00;77.50;;;;;;4904290;29;20032;-79
2021/03/19 07:59:14;;;;;;;;;;;8.90;77.50;;;;;;4950758;28;20035;-79
2021/03/19 08:01:47;;;;;;;0.10;0.00;;;8.90;77.40;;;;;;4958039;28;19915;-79
2021/03/19 08:04:19;;;;;;;0.90;0.10;;;8.80;77.20;;;;;;4954093;28;20476;-79
2021/03/19 08:06:50;;;;;;;0.10;0.05;;;8.80;77.10;;;;;;4970925;28;20483;-80
2021/03/19 08:09:48;;;;;;;0.00;0.00;;;8.80;76.90;;;;;;4956975;28;20031;-81
2021/03/19 08:12:40;;;;;;;0.10;0.08;;;8.80;76.70;;;;;;4923269;28;20093;-79
2021/03/19 08:15:37;;;;;;;0.00;0.00;;;8.80;76.60;;;;;;4964014;28;20420;-79
2021/03/19 08:18:20;;;;;;;0.22;0.10;;;8.80;76.40;;;;;;4951165;28;20027;-79
2021/03/19 08:20:49;;;;;;;1.17;0.30;;;8.80;76.20;;;;;;4945995;29;20035;-79
2021/03/19 08:23:38;;;;;;;0.03;0.00;;;8.80;76.10;;;;;;4959951;28;20526;-79
2021/03/19 08:26:04;;;;;;;0.03;0.00;;;8.80;75.50;;;;;;4944770;28;20051;-79
2021/03/19 08:28:36;;;;;;;0.00;0.00;;;8.90;74.90;;;;;;4967588;28;20030;-79
2021/03/19 08:31:33;;;;;;;0.00;0.00;;;9.10;74.60;;;;;;4952632;28;20035;-79
2021/03/19 08:34:12;;;;;;;0.10;0.00;;;9.20;73.70;;;;;;4970060;28;20042;-81
2021/03/19 08:36:40;;;;;;;0.00;0.00;;;9.20;72.50;;;;;;4967693;28;20042;-79
2021/03/19 08:39:18;;;;;;;0.10;0.10;;;9.20;72.10;;;;;;4954146;28;20026;-79
2021/03/19 08:41:54;;;;;;;0.35;0.10;;;9.10;71.80;;;;;;4966098;28;20471;-79
2021/03/19 08:44:22;;;;;;;0.15;0.00;;;9.00;71.70;;;;;;4945660;29;20523;-79
2021/03/19 08:46:53;;;;;;;0.00;0.00;;;8.90;72.20;;;;;;4942765;28;20047;-79
2021/03/19 08:49:25;;;;;;;0.00;0.00;;;8.80;70.90;;;;;;4946183;29;20031;-79
2021/03/19 08:51:53;;;;;;;0.00;0.00;;;8.80;70.70;;;;;;4971537;28;20039;-79
2021/03/19 08:54:21;;;;;;;0.00;0.00;;;8.70;70.50;;;;;;4940645;29;20058;-78
2021/03/19 08:56:51;;;;;;;0.00;0.00;;;8.70;70.60;;;;;;4954624;28;20030;-80
2021/03/19 08:59:36;;;;;;;0.00;0.00;;;9.00;70.40;;;;;;4963783;28;20031;-80
2021/03/19 09:02:03;;;;;;;0.10;0.00;;;9.50;69.70;;;;;;4967433;28;20031;-80
2021/03/19 09:04:57;;;;;;;0.05;0.00;;;9.70;68.80;;;;;;4963657;28;20056;-80
2021/03/19 09:07:40;;;;;;;0.00;0.00;;;9.90;68.50;;;;;;4934827;29;20036;-84
2021/03/19 09:10:18;;;;;;;0.08;0.00;;;10.00;67.90;;;;;;4937016;29;20031;-81
2021/03/19 09:12:57;;;;;;;0.00;0.00;;;10.20;67.50;;;;;;4921640;29;20047;-81
2021/03/19 09:15:23;;;;;;;0.00;0.00;;;10.40;67.00;;;;;;4952576;28;20046;-80
2021/03/19 09:18:11;;;;;;;0.00;0.00;;;10.50;66.70;;;;;;4933690;29;20035;-80
2021/03/19 09:20:37;;;;;;;0.00;0.00;;;10.40;66.90;;;;;;4932380;29;20377;-79
2021/03/19 09:23:04;;;;;;;0.00;0.00;;;10.20;67.20;;;;;;4933445;29;20038;-80
2021/03/19 09:25:40;;;;;;;1.27;0.10;;;10.00;67.70;;;;;;4937519;29;20488;-80
2021/03/19 09:28:33;;;;;;;0.00;0.00;;;9.90;67.80;;;;;;4935248;29;20512;-79
2021/03/19 09:31:24;;;;;;;2.22;0.50;;;9.80;68.20;;;;;;4921248;29;20032;-80
2021/03/19 09:33:50;;;;;;;1.83;0.20;;;9.70;68.30;;;;;;4935955;29;20035;-79
2021/03/19 09:36:51;;;;;;;3.30;0.85;;;9.70;68.30;;;;;;4923835;29;20370;-79
2021/03/19 09:39:45;;;;;;;0.23;0.13;;;9.70;68.20;;;;;;4933379;29;20377;-80
2021/03/19 09:42:23;;;;;;;0.20;0.00;;;9.70;68.00;;;;;;4932503;29;20036;-79
2021/03/19 09:44:58;;;;;;;0.00;0.00;;;9.80;68.00;;;;;;4931863;29;20036;-79
2021/03/19 09:47:41;;;;;;;0.00;0.00;;;10.10;67.20;;;;;;4935859;29;20035;-79
2021/03/19 09:50:20;;;;;;;0.00;0.00;;;10.30;66.10;;;;;;4936255;29;20380;-80
2021/03/19 09:53:08;;;;;;;0.00;0.00;;;10.40;65.60;;;;;;4947923;29;20047;-79
2021/03/19 09:55:56;;;;;;;0.40;0.00;;;10.50;65.20;;;;;;4931845;29;20036;-80
2021/03/19 09:58:25;;;;;;;0.00;0.00;;;10.60;64.50;;;;;;4921401;29;20418;-80
2021/03/19 10:01:03;;;;;;;0.20;0.10;;;10.80;64.20;;;;;;4932860;29;20043;-80
2021/03/19 10:04:05;;;;;;;0.15;0.15;;;10.90;63.70;;;;;;4932597;29;20042;-81
2021/03/19 10:06:32;;;;;;;;;;;11.00;63.20;;;;;;4943200;28;20048;-80
2021/03/19 10:09:06;;;;;;;0.00;0.00;;;11.20;63.20;;;;;;4939715;29;20256;-79
2021/03/19 10:11:32;;;;;;;0.00;0.00;;;11.30;62.40;;;;;;4931514;29;20032;-79
2021/03/19 10:14:19;;;;;;;0.75;0.13;;;11.40;61.20;;;;;;4924247;29;20039;-79
2021/03/19 10:16:45;;;;;;;0.00;0.00;;;11.50;60.70;;;;;;4948045;28;20039;-80
2021/03/19 10:19:13;;;;;;;0.08;0.00;;;11.60;60.00;;;;;;4946989;29;20041;-83
2021/03/19 10:21:49;;;;;;;0.00;0.00;;;11.40;59.60;;;;;;4931138;29;20027;-80
2021/03/19 10:24:25;;;;;;;0.30;0.13;;;11.20;59.40;;;;;;4939929;29;20032;-79
2021/03/19 10:26:55;;;;;;;0.50;0.13;;;11.10;59.60;;;;;;4915796;29;20039;-79
2021/03/19 10:29:35;;;;;;;0.00;0.00;;;11.20;59.70;;;;;;4921343;29;20036;-79
2021/03/19 10:32:22;;;;;;;0.00;0.00;;;11.50;59.30;;;;;;4925581;28;20055;-81
2021/03/19 10:34:54;;;;;;;0.20;0.10;;;11.70;58.70;;;;;;4922730;29;20047;-80
2021/03/19 10:38:01;;;;;;;0.55;0.10;;;11.80;58.20;;;;;;4917477;29;20517;-80
2021/03/19 10:40:36;;;;;;;0.00;0.00;;;11.90;57.90;;;;;;4915454;29;20385;-80
2021/03/19 10:43:15;;;;;;;0.00;0.00;;;12.10;57.70;;;;;;4934185;29;20039;-80
2021/03/19 10:46:07;;;;;;;0.08;0.00;;;12.30;57.30;;;;;;4933727;28;20039;-81
2021/03/19 10:48:45;;;;;;;0.47;0.00;;;12.30;56.90;;;;;;4932575;29;20032;-80
2021/03/19 10:51:37;;;;;;;0.10;0.00;;;12.50;57.00;;;;;;4935393;29;20047;-81
2021/03/19 10:54:23;;;;;;;0.40;0.10;;;12.80;56.80;;;;;;4915612;29;20050;-80
2021/03/19 10:56:58;;;;;;;0.35;0.22;;;12.80;56.40;;;;;;4939386;29;20064;-80
2021/03/19 10:59:28;;;;;;;0.20;0.10;;;12.60;56.50;;;;;;4915104;29;20028;-79
2021/03/19 11:01:55;;;;;;;0.03;0.00;;;12.40;56.80;;;;;;4928824;28;20358;-79
2021/03/19 11:04:35;;;;;;;0.13;0.00;;;12.30;56.70;;;;;;4930337;29;20035;-80
2021/03/19 11:07:27;;;;;;;0.50;0.10;;;12.30;56.30;;;;;;4934445;29;20071;-81
2021/03/19 11:10:12;;;;;;;0.47;0.10;;;12.30;56.10;;;;;;4950184;29;20050;-80
2021/03/19 11:12:58;;;;;;;0.70;0.28;;;12.30;56.00;;;;;;4932188;29;20039;-80
2021/03/19 11:15:30;;;;;;;0.55;0.17;;;12.50;55.70;;;;;;4926946;29;20036;-80
2021/03/19 11:18:38;;;;;;;0.25;0.00;;;12.70;55.30;;;;;;4931672;29;20036;-80
2021/03/19 11:21:07;;;;;;;0.10;0.10;;;12.70;54.60;;;;;;4939117;29;20035;-80
2021/03/19 11:23:49;;;;;;;0.65;0.10;;;12.80;54.20;;;;;;4931367;29;20048;-80
2021/03/19 11:26:27;;;;;;;0.00;0.00;;;12.90;54.10;;;;;;4934240;29;20047;-80
2021/03/19 11:29:18;;;;;;;0.10;0.00;;;13.00;53.70;;;;;;4930822;29;20044;-80
2021/03/19 11:31:58;;;;;;;0.35;0.10;;;13.10;52.90;;;;;;4928070;28;20520;-80
2021/03/19 11:34:44;;;;;;;0.10;0.03;;;13.00;52.60;;;;;;4943335;29;20044;-80
2021/03/19 11:37:19;;;;;;;0.77;0.20;;;13.00;52.40;;;;;;4916998;29;20039;-80
2021/03/19 11:39:57;;;;;;;0.57;0.43;;;13.00;52.20;;;;;;4947690;29;20058;-79
2021/03/19 11:42:32;;;;;;;0.00;0.00;;;13.00;52.10;;;;;;4918622;29;20035;-81
2021/03/19 11:45:01;;;;;;;0.00;0.00;;;13.10;52.00;;;;;;4923490;29;20047;-80
2021/03/19 11:47:33;;;;;;;0.13;0.13;;;13.20;51.60;;;;;;4938355;29;20047;-81
2021/03/19 11:50:20;;;;;;;0.00;0.00;;;13.30;51.20;;;;;;4916352;29;20035;-79
2021/03/19 11:52:47;;;;;;;0.03;0.03;;;13.20;51.10;;;;;;4934155;29;20040;-79
2021/03/19 11:55:18;;;;;;;0.45;0.05;;;13.00;51.40;;;;;;4929108;29;20393;-80
2021/03/19 11:57:44;;;;;;;0.32;0.08;;;12.90;50.80;;;;;;4947133;29;20028;-80
2021/03/19 12:00:15;;;;;;;0.10;0.10;;;12.90;50.60;;;;;;4931040;28;20036;-80
2021/03/19 12:02:41;;;;;;;0.20;0.08;;;12.80;50.60;;;;;;4922471;29;20384;-80
2021/03/19 12:05:08;;;;;;;0.50;0.10;;;12.80;50.30;;;;;;4918791;28;20046;-81
2021/03/19 12:07:34;;;;;;;0.00;0.00;;;12.70;50.40;;;;;;4929384;28;20046;-79
2021/03/19 12:10:01;;;;;;;0.80;0.13;;;12.70;50.70;;;;;;4951714;28;20043;-81
2021/03/19 12:12:27;;;;;;;0.03;0.00;;;12.80;50.60;;;;;;4965679;28;20028;-80
2021/03/19 12:14:55;;;;;;;0.40;0.28;;;12.80;50.50;;;;;;4951305;28;20055;-80
2021/03/19 12:17:22;;;;;;;0.13;0.03;;;12.70;50.50;;;;;;4962361;28;20058;-81
2021/03/19 12:19:49;;;;;;;0.00;0.00;;;12.80;50.30;;;;;;4944903;28;20045;-80
2021/03/19 12:22:15;;;;;;;0.00;0.00;;;12.90;50.20;;;;;;4949156;28;20038;-83
2021/03/19 12:24:41;;;;;;;0.10;0.00;;;13.00;50.10;;;;;;4951487;28;20379;-81
2021/03/19 12:27:08;;;;;;;1.15;0.43;;;13.20;50.00;;;;;;4930587;29;20047;-80
2021/03/19 12:29:34;;;;;;;0.00;0.00;;;13.20;49.80;;;;;;4933775;28;20027;-80
2021/03/19 12:32:00;;;;;;;0.40;0.10;;;13.20;49.70;;;;;;4962349;28;20039;-81
2021/03/19 12:34:26;;;;;;;0.30;0.13;;;13.20;49.50;;;;;;4940704;28;20383;-80
2021/03/19 12:36:52;;;;;;;0.35;0.15;;;13.10;49.20;;;;;;4938222;28;20045;-79
2021/03/19 12:39:19;;;;;;;0.80;0.63;;;12.90;49.20;;;;;;4968888;28;20039;-79
2021/03/19 12:41:45;;;;;;;0.38;0.10;;;12.90;49.30;;;;;;4961940;28;20369;-79
2021/03/19 12:44:12;;;;;;;2.00;0.52;;;12.90;49.10;;;;;;4957742;28;20050;-80
2021/03/19 12:46:38;;;;;;;0.35;0.10;;;12.90;48.90;;;;;;4944086;28;20074;-79
2021/03/19 12:49:05;;;;;;;0.95;0.65;;;13.00;48.80;;;;;;4953810;28;20051;-79
2021/03/19 12:51:31;;;;;;;0.10;0.03;;;13.00;48.40;;;;;;4924550;28;20031;-82
2021/03/19 12:53:57;;;;;;;0.30;0.10;;;13.00;48.00;;;;;;4966769;28;20027;-80
2021/03/19 12:56:23;;;;;;;0.00;0.00;;;12.90;47.70;;;;;;4963031;28;20404;-79
2021/03/19 12:58:49;;;;;;;0.20;0.10;;;12.90;47.80;;;;;;4943335;28;20361;-80
2021/03/19 13:01:18;;;;;;;0.65;0.20;;;12.90;47.60;;;;;;4968168;28;20046;-79
2021/03/19 13:03:45;;;;;;;0.25;0.15;;;12.90;47.30;;;;;;4952524;28;20071;-81
2021/03/19 13:06:11;;;;;;;1.13;0.35;;;12.90;47.30;;;;;;4947215;29;20043;-79
2021/03/19 13:08:37;;;;;;;2.28;0.43;;;12.90;47.30;;;;;;4953721;28;20060;-80
2021/03/19 13:11:04;;;;;;;0.50;0.30;;;13.00;47.40;;;;;;4946870;28;20044;-79
2021/03/19 13:13:30;;;;;;;0.47;0.15;;;13.00;47.30;;;;;;4937288;29;20042;-81
2021/03/19 13:15:56;;;;;;;1.65;0.15;;;13.00;47.00;;;;;;4933641;29;20052;-80
2021/03/19 13:18:22;;;;;;;0.55;0.15;;;13.10;47.20;;;;;;4949415;29;20051;-80
2021/03/19 13:20:49;;;;;;;0.10;0.00;;;13.10;47.10;;;;;;4947568;28;20039;-80
2021/03/19 13:23:15;;;;;;;0.20;0.15;;;13.10;46.90;;;;;;4946395;29;20103;-80
2021/03/19 13:25:42;;;;;;;0.00;0.00;;;13.10;47.00;;;;;;4928799;29;20043;-80
2021/03/19 13:28:09;;;;;;;0.63;0.15;;;13.00;46.80;;;;;;4937121;28;20050;-80
2021/03/19 13:30:35;;;;;;;0.85;0.10;;;13.00;46.80;;;;;;4930348;28;20055;-79